Time;durP1;ratioP1;P1;durP2;ratioP2;P2;SDS_P1;SDS_P2;PMS_P1;PMS_P2;Temp;Humidity;BMP_temperature;BMP_pressure;BME280_temperature;BME280_humidity;BME280_pressure;Samples;Min_cycle;Max_cycle;Signal;HPM_P1;HPM_P2
2022/04/26 03:37:23;;;;;;;8.45;6.15;;;;;;;2.94;100.00;101375.56;4909110;29;20047;-80
2022/04/26 03:39:49;;;;;;;11.27;5.45;;;;;;;2.92;100.00;101370.41;4899207;29;20371;-80
2022/04/26 03:42:15;;;;;;;11.45;6.43;;;;;;;3.03;100.00;101390.72;4903362;29;20025;-80
2022/04/26 03:44:40;;;;;;;8.73;6.60;;;;;;;2.85;100.00;101363.97;4912760;29;20044;-80
2022/04/26 03:47:06;;;;;;;9.13;6.20;;;;;;;3.10;100.00;101399.00;4901213;29;20040;-80
2022/04/26 03:49:32;;;;;;;8.98;6.70;;;;;;;3.12;100.00;101397.88;4898866;29;20040;-80
2022/04/26 03:51:57;;;;;;;15.82;7.57;;;;;;;3.17;100.00;101395.66;4898174;29;20035;-80
2022/04/26 03:54:24;;;;;;;9.15;6.57;;;;;;;3.04;100.00;101373.78;4883586;29;20060;-80
2022/04/26 03:56:50;;;;;;;10.40;7.13;;;;;;;3.22;100.00;101400.56;4899908;29;20471;-80
2022/04/26 03:59:16;;;;;;;10.68;6.50;;;;;;;3.19;100.00;101390.22;4900857;29;20052;-80
2022/04/26 04:01:42;;;;;;;14.57;7.95;;;;;;;3.26;100.00;101392.19;4900753;29;20034;-80
2022/04/26 04:04:07;;;;;;;13.32;6.53;;;;;;;3.23;100.00;101381.81;4903774;29;20092;-81
2022/04/26 04:06:33;;;;;;;10.75;7.18;;;;;;;2.99;100.00;101339.66;4910864;29;20052;-81
2022/04/26 04:08:59;;;;;;;7.20;5.68;;;;;;;3.36;100.00;101388.69;4912620;29;20032;-83
2022/04/26 04:11:24;;;;;;;12.98;7.63;;;;;;;3.06;100.00;101342.59;5087899;23;20068;-80
2022/04/26 04:13:50;;;;;;;13.43;8.38;;;;;;;3.33;100.00;101397.78;4897051;29;20051;-80
2022/04/26 04:16:15;;;;;;;14.70;9.07;;;;;;;3.30;100.00;101393.56;4898151;29;20104;-80
2022/04/26 04:21:25;;;;;;;16.67;8.07;;;;;;;3.64;100.00;101390.56;4880067;29;20068;-81
2022/04/26 04:23:50;;;;;;;14.70;9.73;;;;;;;3.61;100.00;101369.53;4884650;29;20056;-81
2022/04/26 04:26:15;;;;;;;13.80;9.13;;;;;;;3.86;100.00;101394.75;4884158;29;20037;-80
2022/04/26 04:28:41;;;;;;;12.07;8.52;;;;;;;4.11;100.00;101393.31;4889923;29;20442;-80
2022/04/26 04:31:08;;;;;;;14.20;8.50;;;;;;;4.01;100.00;101395.16;4898537;29;20024;-79
2022/04/26 04:33:34;;;;;;;10.15;7.28;;;;;;;3.78;100.00;101359.19;4918456;29;20044;-84
2022/04/26 04:43:58;;;;;;;12.25;7.50;;;;;;;3.36;100.00;101237.06;5690768;23;21023;-79
2022/04/26 04:46:24;;;;;;;16.73;9.13;;;;;;;3.59;100.00;101275.69;4917685;29;20443;-84
2022/04/26 04:48:49;;;;;;;11.15;7.43;;;;;;;4.45;100.00;101391.00;5451647;23;20048;-84
2022/04/26 04:51:15;;;;;;;13.20;8.00;;;;;;;3.44;100.00;101218.56;5111759;23;20059;-81
2022/04/26 04:53:41;;;;;;;13.23;8.07;;;;;;;3.02;100.00;101139.16;4906341;29;20452;-81
2022/04/26 04:56:11;;;;;;;9.05;7.25;;;;;;;3.35;100.00;101176.91;4922200;29;20029;-83
2022/04/26 04:58:37;;;;;;;11.20;7.13;;;;;;;4.26;100.00;101327.09;4922014;29;20044;-82
2022/04/26 05:01:02;;;;;;;14.18;7.07;;;;;;;4.90;100.00;101419.59;4923378;29;20035;-84
2022/04/26 05:03:28;;;;;;;11.05;6.85;;;;;;;3.95;100.00;101254.63;4916538;29;20008;-82
2022/04/26 06:05:23;;;;;;;5.40;4.30;;;;;;;7.15;100.00;101382.72;5766667;23;20048;-83
2022/04/26 07:23:13;;;;;;;2.25;0.40;;;;;;;10.28;100.00;101498.91;5412035;23;20099;-84
2022/04/26 10:12:15;;;;;;;1.10;0.38;;;;;;;13.59;58.53;101565.78;5711729;23;20068;-83
2022/04/26 12:29:11;;;;;;;2.95;0.50;;;;;;;14.88;46.64;101624.47;5889423;23;20078;-81
2022/04/26 13:15:35;;;;;;;2.33;0.40;;;;;;;13.27;45.61;101439.38;5731516;23;20093;-85
2022/04/26 13:23:16;;;;;;;1.00;0.40;;;;;;;13.76;48.38;101597.91;5386731;23;20072;-84
2022/04/26 14:35:29;;;;;;;0.50;0.40;;;;;;;15.35;43.63;101627.16;5456693;23;20044;-84
2022/04/26 14:43:06;;;;;;;0.73;0.40;;;;;;;14.62;45.28;101655.06;5551921;23;20041;-84
2022/04/26 16:21:25;;;;;;;3.90;0.47;;;;;;;11.50;51.16;101728.59;4944809;29;20023;-84
2022/04/26 16:57:29;;;;;;;2.60;0.40;;;;;;;11.45;46.90;101687.03;5728024;23;20023;-82
2022/04/26 17:06:00;;;;;;;2.22;0.52;;;;;;;11.65;47.41;101758.28;5355288;23;20095;-82
2022/04/26 17:08:26;;;;;;;0.47;0.30;;;;;;;11.63;46.86;101754.09;4924819;29;20024;-85
2022/04/26 17:18:36;;;;;;;0.88;0.30;;;;;;;11.78;46.89;101768.44;5285801;23;19908;-84
2022/04/26 17:26:12;;;;;;;1.77;0.82;;;;;;;10.28;47.15;101554.56;5632726;23;20130;-82
2022/04/26 17:28:39;;;;;;;2.63;0.40;;;;;;;10.40;46.92;101615.03;4922263;29;20613;-82
2022/04/26 17:31:06;;;;;;;1.58;0.60;;;;;;;9.65;47.13;101533.03;4924003;29;20028;-86
2022/04/26 17:33:31;;;;;;;1.42;0.32;;;;;;;11.12;47.25;101780.78;5746312;23;20052;-84
2022/04/26 17:38:32;;;;;;;1.83;0.60;;;;;;;11.22;47.45;101790.28;5025841;23;20075;-84
2022/04/26 17:40:57;;;;;;;0.32;0.30;;;;;;;11.02;47.64;101783.69;4922105;29;20009;-83
2022/04/26 17:43:23;;;;;;;1.70;0.40;;;;;;;10.93;46.84;101800.94;4921959;29;20025;-84
2022/04/26 17:45:48;;;;;;;2.63;0.35;;;;;;;10.87;47.63;101798.94;4941327;29;20037;-84
2022/04/26 17:48:14;;;;;;;1.00;0.30;;;;;;;10.87;47.19;101809.72;4940823;29;20008;-83
2022/04/26 18:21:36;;;;;;;0.68;0.40;;;;;;;9.53;45.06;101600.78;4895838;29;20063;-84
2022/04/26 18:24:02;;;;;;;1.00;0.50;;;;;;;9.83;44.84;101645.69;4903041;29;20048;-83
2022/04/26 18:26:27;;;;;;;3.13;0.30;;;;;;;10.06;44.68;101691.47;4900623;29;20039;-83
2022/04/26 18:28:58;;;;;;;2.17;0.40;;;;;;;9.33;44.33;101606.53;4902177;29;20135;-83
2022/04/26 18:31:32;;;;;;;3.13;0.68;;;;;;;9.34;44.65;101610.06;4901272;29;20141;-82
2022/04/26 18:33:59;;;;;;;1.58;0.65;;;;;;;9.39;44.56;101621.13;4897254;29;20069;-82
2022/04/26 18:36:25;;;;;;;0.95;0.50;;;;;;;9.23;44.74;101597.00;4900244;29;20041;-82
2022/04/26 18:38:56;;;;;;;2.60;0.50;;;;;;;9.21;44.59;101593.66;4914603;29;20059;-83
2022/04/26 18:41:24;;;;;;;1.70;0.50;;;;;;;10.17;44.88;101770.13;4898688;29;20040;-82
2022/04/26 18:43:52;;;;;;;1.48;0.50;;;;;;;9.45;45.11;101673.34;4897264;29;20475;-82
2022/04/26 18:46:21;;;;;;;0.80;0.50;;;;;;;9.24;45.66;101679.22;4903236;29;20021;-82
2022/04/26 18:48:48;;;;;;;1.58;0.47;;;;;;;9.60;45.92;101788.03;4897801;29;20040;-82
2022/04/26 18:51:14;;;;;;;1.80;0.60;;;;;;;9.38;46.09;101746.53;4900371;29;20072;-83
2022/04/26 18:53:40;;;;;;;2.40;0.43;;;;;;;9.26;46.29;101747.88;4902609;29;20028;-82
2022/04/26 18:56:07;;;;;;;3.83;0.50;;;;;;;10.02;46.55;101889.13;4902390;29;20025;-83
2022/04/26 18:58:33;;;;;;;3.05;0.40;;;;;;;9.87;47.00;101891.66;4910659;29;20025;-81
2022/04/26 19:01:00;;;;;;;1.35;0.50;;;;;;;9.85;47.29;101895.50;4908003;29;20017;-83
2022/04/26 19:03:26;;;;;;;4.38;0.60;;;;;;;9.81;47.60;101897.69;4900691;29;20028;-81
2022/04/26 19:05:52;;;;;;;1.15;0.50;;;;;;;9.71;48.03;101891.66;4899387;29;20067;-83
2022/04/26 19:08:20;;;;;;;4.72;0.70;;;;;;;9.64;47.99;101902.22;4897584;29;20033;-82
2022/04/26 19:13:31;;;;;;;2.38;0.60;;;;;;;9.43;48.18;101887.56;4902124;29;20036;-85
2022/04/26 19:15:58;;;;;;;1.55;0.68;;;;;;;9.38;48.81;101891.59;4901961;29;20045;-83
2022/04/26 19:21:00;;;;;;;0.63;0.40;;;;;;;7.86;49.55;101677.91;5504582;23;19920;-83
2022/04/26 19:23:27;;;;;;;1.45;0.50;;;;;;;8.84;49.65;101850.84;4881895;29;20041;-82
2022/04/26 19:25:54;;;;;;;4.40;0.60;;;;;;;7.53;49.85;101624.97;4882163;29;20045;-83
2022/04/26 19:28:20;;;;;;;3.17;0.47;;;;;;;7.74;50.12;101674.63;4881803;29;20034;-83
2022/04/26 19:30:46;;;;;;;1.73;0.60;;;;;;;9.08;50.43;101916.34;4883324;29;20052;-83
2022/04/26 19:33:13;;;;;;;0.80;0.50;;;;;;;9.01;51.10;101910.78;4884655;29;20037;-82
2022/04/26 19:35:39;;;;;;;1.27;0.60;;;;;;;8.98;50.80;101915.66;5030415;23;20048;-84
2022/04/26 19:40:40;;;;;;;3.15;0.52;;;;;;;8.76;50.68;101936.66;5125330;23;20105;-81
2022/04/26 19:43:06;;;;;;;2.22;0.60;;;;;;;8.68;51.17;101921.38;4929924;29;20455;-82
2022/04/26 19:45:32;;;;;;;1.55;0.60;;;;;;;7.02;50.96;101674.00;4926467;29;20040;-81
2022/04/26 19:47:57;;;;;;;1.92;0.50;;;;;;;7.30;50.91;101721.06;4918086;29;20056;-82
2022/04/26 19:53:07;;;;;;;1.40;0.50;;;;;;;7.11;51.27;101713.19;4980296;23;20090;-82
2022/04/26 19:55:33;;;;;;;1.25;0.60;;;;;;;8.36;51.67;101942.59;4911494;29;20009;-82
2022/04/26 19:57:59;;;;;;;2.75;0.57;;;;;;;7.45;52.49;101793.66;5435816;23;20052;-81
2022/04/26 20:00:24;;;;;;;1.23;0.70;;;;;;;7.11;52.18;101758.69;4987246;23;20060;-83
2022/04/26 20:02:49;;;;;;;3.42;0.60;;;;;;;8.21;52.42;101934.25;4941292;23;20082;-83
2022/04/26 20:10:20;;;;;;;3.85;0.55;;;;;;;8.10;52.99;101945.22;5614875;23;20087;-82
2022/04/26 20:15:21;;;;;;;1.15;0.50;;;;;;;6.93;53.41;101803.34;4929008;23;20057;-84
2022/04/26 20:31:18;;;;;;;3.80;0.65;;;;;;;6.23;56.27;101793.13;4902241;29;20044;-81
2022/04/26 20:33:43;;;;;;;2.35;0.40;;;;;;;7.05;56.46;101925.22;4900102;29;20128;-82
2022/04/26 20:36:08;;;;;;;1.27;0.50;;;;;;;7.17;56.64;101958.00;4917977;29;20044;-80
2022/04/26 20:38:34;;;;;;;1.42;0.50;;;;;;;7.09;56.92;101964.09;4906797;29;20047;-81
2022/04/26 20:41:00;;;;;;;3.30;0.52;;;;;;;7.04;56.82;101974.41;4898625;29;20029;-82
2022/04/26 20:43:25;;;;;;;1.70;0.52;;;;;;;6.93;57.47;101967.41;4996644;23;20052;-84
2022/04/26 20:45:53;;;;;;;12.65;0.73;;;;;;;5.75;57.77;101825.28;5130419;23;20037;-83
2022/04/26 20:48:24;;;;;;;1.38;0.52;;;;;;;4.80;58.12;101671.25;4885068;29;20026;-83
2022/04/26 20:50:55;;;;;;;0.75;0.47;;;;;;;6.68;58.25;101976.06;4886981;29;20030;-82
2022/04/26 20:53:21;;;;;;;1.38;0.50;;;;;;;6.53;58.14;101963.16;4888152;29;20018;-82
2022/04/26 20:58:21;;;;;;;2.58;0.70;;;;;;;4.94;58.12;101729.53;4904275;23;1072659;-82
2022/04/26 21:00:47;;;;;;;0.98;0.52;;;;;;;6.47;59.27;101976.25;5317004;23;20096;-83
2022/04/26 21:03:12;;;;;;;1.65;0.95;;;;;;;6.49;59.05;101984.97;4923016;29;20052;-82
2022/04/26 21:05:38;;;;;;;2.42;0.47;;;;;;;6.47;59.32;101989.63;4917595;29;20126;-81
2022/04/26 21:08:04;;;;;;;2.90;0.50;;;;;;;6.42;59.79;101990.03;4905296;29;20028;-80
2022/04/26 21:10:30;;;;;;;2.70;0.50;;;;;;;6.35;59.41;101981.75;4904810;29;20032;-80
2022/04/26 21:15:39;;;;;;;2.40;0.50;;;;;;;6.29;59.77;101987.69;4900479;29;20386;-79
2022/04/26 21:18:05;;;;;;;2.80;0.50;;;;;;;6.27;60.21;101992.31;4899955;29;20088;-79
2022/04/26 21:20:31;;;;;;;2.45;0.65;;;;;;;6.24;60.41;101991.75;4902328;29;20112;-79
2022/04/26 21:22:57;;;;;;;1.45;0.63;;;;;;;6.23;60.00;102003.44;4882214;29;20039;-80
2022/04/26 21:25:23;;;;;;;1.75;0.73;;;;;;;6.05;60.70;101990.75;4896271;29;20115;-79
2022/04/26 21:27:48;;;;;;;2.80;0.70;;;;;;;6.11;60.58;102010.75;4892767;29;20049;-79
2022/04/26 21:30:14;;;;;;;4.15;0.90;;;;;;;6.04;61.24;102015.81;4875364;29;20440;-79
2022/04/26 21:32:39;;;;;;;1.65;0.60;;;;;;;5.97;61.57;102017.34;4893055;29;20139;-78
2022/04/26 21:35:06;;;;;;;1.80;0.52;;;;;;;5.94;61.34;102019.47;4893175;29;20032;-79
2022/04/26 21:37:31;;;;;;;1.70;0.60;;;;;;;5.83;61.61;102007.06;4900077;29;20107;-79
2022/04/26 21:39:57;;;;;;;3.25;0.90;;;;;;;5.89;61.86;102017.16;4900107;29;20140;-79
2022/04/26 21:42:22;;;;;;;5.28;0.60;;;;;;;5.91;61.99;102033.91;4898031;29;20444;-80
2022/04/26 21:44:48;;;;;;;1.50;0.40;;;;;;;5.80;61.99;102031.38;4899308;29;20024;-79
2022/04/26 21:47:14;;;;;;;3.40;0.60;;;;;;;5.80;62.41;102034.88;4899330;29;20032;-79
2022/04/26 21:52:23;;;;;;;3.55;0.60;;;;;;;5.56;63.13;102021.91;4899384;29;20481;-79
2022/04/26 21:54:49;;;;;;;4.30;0.85;;;;;;;5.48;63.25;102032.41;4899988;29;20037;-79
2022/04/26 21:57:15;;;;;;;6.28;0.70;;;;;;;5.47;63.54;102040.56;4898520;29;20033;-79
2022/04/26 21:59:40;;;;;;;4.75;0.70;;;;;;;5.37;64.38;102037.84;4868798;29;20043;-78
2022/04/26 22:02:05;;;;;;;4.25;0.80;;;;;;;5.30;64.20;102042.03;4898509;29;20508;-79
2022/04/26 22:04:31;;;;;;;2.42;0.60;;;;;;;5.28;64.57;102043.97;4899004;29;20095;-79
2022/04/26 22:06:57;;;;;;;4.53;0.80;;;;;;;5.22;65.55;102044.50;4897843;29;20040;-79
2022/04/26 22:09:22;;;;;;;2.90;0.68;;;;;;;4.96;65.70;102026.25;4898437;29;20040;-79
2022/04/26 22:11:48;;;;;;;4.35;0.90;;;;;;;5.10;65.61;102057.94;4867416;29;20045;-79
2022/04/26 22:14:14;;;;;;;5.30;0.90;;;;;;;5.09;66.18;102056.25;4898679;29;20037;-79
2022/04/26 22:16:40;;;;;;;3.08;0.60;;;;;;;5.05;66.25;102052.16;4899317;29;20028;-79
2022/04/26 22:19:05;;;;;;;1.45;0.60;;;;;;;5.03;66.54;102054.09;4899087;29;20028;-79
2022/04/26 22:21:31;;;;;;;1.10;0.50;;;;;;;4.99;66.06;102049.16;4896659;29;20033;-79
2022/04/26 22:23:58;;;;;;;2.47;0.55;;;;;;;5.07;66.88;102068.88;4899617;29;20038;-79
2022/04/26 22:26:24;;;;;;;2.35;0.88;;;;;;;5.05;67.00;102067.31;4898814;29;20032;-79
2022/04/26 22:28:50;;;;;;;1.83;0.60;;;;;;;5.04;67.06;102070.97;4898937;29;20032;-78
2022/04/26 22:31:16;;;;;;;2.28;0.50;;;;;;;5.01;66.62;102079.25;4918790;29;20415;-79
2022/04/26 22:33:41;;;;;;;2.15;0.50;;;;;;;4.92;66.84;102068.38;4874862;29;20028;-79
2022/04/26 22:36:06;;;;;;;2.00;0.68;;;;;;;4.95;67.82;102085.94;4899172;29;20065;-79
2022/04/26 22:38:32;;;;;;;3.95;0.60;;;;;;;4.92;67.69;102086.19;4897750;29;20173;-79
2022/04/26 22:40:58;;;;;;;2.15;0.45;;;;;;;4.87;68.14;102075.94;4899151;29;20467;-79
2022/04/26 22:43:23;;;;;;;1.00;0.52;;;;;;;4.90;68.04;102088.13;4881207;29;20104;-79
2022/04/26 22:45:48;;;;;;;2.25;0.40;;;;;;;4.75;67.62;102066.28;4898396;29;20367;-79
2022/04/26 22:48:14;;;;;;;1.27;0.52;;;;;;;4.89;68.13;102089.13;4877107;29;20375;-79
2022/04/26 22:50:39;;;;;;;3.17;0.60;;;;;;;4.82;68.14;102079.94;4894374;29;20036;-79
2022/04/26 22:53:05;;;;;;;3.58;0.77;;;;;;;4.79;68.04;102088.22;4881177;29;20078;-79
2022/04/26 22:55:32;;;;;;;2.40;0.60;;;;;;;4.80;68.16;102089.88;4882431;29;20043;-79
2022/04/26 22:57:57;;;;;;;1.60;0.57;;;;;;;4.68;68.35;102083.78;4897824;29;20091;-79
2022/04/26 23:00:22;;;;;;;1.15;0.63;;;;;;;4.70;68.47;102096.03;4883086;29;20521;-79
2022/04/26 23:02:48;;;;;;;3.55;0.70;;;;;;;4.59;68.48;102077.41;4896315;29;20048;-79
2022/04/26 23:05:13;;;;;;;3.53;0.50;;;;;;;4.70;68.47;102112.03;4898038;29;20096;-79
2022/04/26 23:07:39;;;;;;;2.22;0.63;;;;;;;4.39;69.12;102057.75;4867333;29;20032;-79
2022/04/26 23:10:06;;;;;;;1.45;0.70;;;;;;;4.65;68.97;102110.72;4895901;29;20055;-79
2022/04/26 23:12:32;;;;;;;1.27;0.68;;;;;;;4.63;69.18;102110.81;4897236;29;20036;-79
2022/04/26 23:14:58;;;;;;;1.48;0.57;;;;;;;4.59;69.67;102120.06;4898821;29;20478;-79
2022/04/26 23:17:24;;;;;;;2.38;0.73;;;;;;;4.56;69.32;102122.13;4897788;29;20032;-79
2022/04/26 23:19:49;;;;;;;2.38;0.55;;;;;;;4.54;69.30;102122.28;4899321;29;20032;-78
2022/04/26 23:22:14;;;;;;;1.65;0.60;;;;;;;4.43;69.83;102111.63;4897520;29;20044;-79
2022/04/26 23:24:40;;;;;;;3.55;0.60;;;;;;;4.33;69.50;102097.38;4904516;29;20040;-79
2022/04/26 23:27:05;;;;;;;1.85;0.73;;;;;;;4.51;69.31;102132.34;4899091;29;20345;-79
2022/04/26 23:29:30;;;;;;;2.58;0.60;;;;;;;4.54;69.61;102129.44;4900682;29;20079;-79
2022/04/26 23:31:56;;;;;;;1.73;0.70;;;;;;;4.54;69.75;102129.44;4905806;29;20455;-79
2022/04/26 23:37:05;;;;;;;2.47;0.68;;;;;;;4.51;69.87;102129.69;4886463;29;20088;-79
2022/04/26 23:39:30;;;;;;;3.35;0.60;;;;;;;4.55;69.81;102139.94;4900087;29;20372;-79
2022/04/26 23:41:56;;;;;;;1.67;0.55;;;;;;;4.50;69.75;102125.31;4898341;29;20033;-78
2022/04/26 23:44:21;;;;;;;1.27;0.60;;;;;;;4.55;69.68;102136.44;4897947;29;20048;-79
2022/04/26 23:46:47;;;;;;;3.15;0.70;;;;;;;4.47;70.39;102132.59;4896920;29;20041;-79
2022/04/26 23:49:13;;;;;;;1.65;0.60;;;;;;;4.48;70.21;102141.44;4896039;29;20378;-79
2022/04/26 23:54:22;;;;;;;3.65;0.70;;;;;;;4.26;71.22;102126.34;4899508;29;20043;-79
2022/04/26 23:56:47;;;;;;;1.75;0.60;;;;;;;4.29;71.68;102134.09;4897225;29;20028;-78
2022/04/26 23:59:13;;;;;;;1.23;0.63;;;;;;;4.29;71.27;102139.44;4899259;29;20028;-78
